Time;durP1;ratioP1;P1;durP2;ratioP2;P2;SDS_P1;SDS_P2;PMS_P1;PMS_P2;Temp;Humidity;BMP_temperature;BMP_pressure;BME280_temperature;BME280_humidity;BME280_pressure;Samples;Min_cycle;Max_cycle;Signal;HPM_P1;HPM_P2
2022/03/04 00:01:46;;;;;;;18.90;12.68;;;1.20;99.90;;;;;;5032125;28;20488;-76
2022/03/04 00:04:13;;;;;;;20.70;12.35;;;1.20;99.90;;;;;;5029452;28;20052;-78
2022/03/04 00:06:39;;;;;;;19.15;11.57;;;1.30;99.90;;;;;;5029372;28;20025;-77
2022/03/04 00:09:05;;;;;;;15.93;12.18;;;1.50;99.90;;;;;;5045384;28;20452;-76
2022/03/04 00:11:30;;;;;;;16.98;12.63;;;1.50;99.80;;;;;;5029802;28;20028;-77
2022/03/04 00:13:56;;;;;;;16.95;13.07;;;1.50;99.90;;;;;;5037118;28;20028;-77
2022/03/04 00:16:22;;;;;;;17.40;12.38;;;1.40;99.90;;;;;;5028474;28;20029;-76
2022/03/04 00:19:06;;;;;;;16.60;12.75;;;1.40;99.90;;;;;;5029733;28;20040;-77
2022/03/04 00:21:33;;;;;;;21.98;13.35;;;1.50;99.90;;;;;;5027827;28;20022;-76
2022/03/04 00:23:59;;;;;;;15.68;13.15;;;1.50;99.90;;;;;;5025472;28;20636;-75
2022/03/04 00:26:25;;;;;;;16.65;12.15;;;1.40;99.90;;;;;;5029279;28;20025;-76
2022/03/04 00:28:51;;;;;;;18.60;12.73;;;1.30;99.90;;;;;;5031090;28;20025;-77
2022/03/04 00:31:16;;;;;;;16.73;12.18;;;1.30;99.90;;;;;;5042112;28;20025;-76
2022/03/04 00:33:42;;;;;;;19.33;13.15;;;1.10;99.90;;;;;;5039760;28;20496;-77
2022/03/04 00:36:07;;;;;;;18.25;11.70;;;1.10;99.90;;;;;;5043049;28;20029;-77
2022/03/04 00:38:33;;;;;;;17.25;13.65;;;1.10;99.90;;;;;;5030661;28;20159;-76
2022/03/04 00:40:58;;;;;;;19.10;12.90;;;1.20;99.90;;;;;;5029516;28;20069;-77
2022/03/04 00:43:24;;;;;;;20.77;12.55;;;1.10;99.90;;;;;;5029706;28;20104;-77
2022/03/04 00:45:51;;;;;;;19.02;13.50;;;1.10;99.90;;;;;;5025772;28;20405;-78
2022/03/04 00:48:17;;;;;;;18.90;12.98;;;1.00;99.90;;;;;;5021944;28;20402;-78
2022/03/04 00:50:42;;;;;;;15.63;12.75;;;1.00;99.90;;;;;;5027306;28;20033;-77
2022/03/04 00:53:08;;;;;;;16.25;12.15;;;1.00;99.90;;;;;;5027868;28;20112;-76
2022/03/04 00:55:38;;;;;;;17.80;12.05;;;0.80;99.90;;;;;;5026970;28;20042;-78
2022/03/04 00:58:07;;;;;;;20.13;13.38;;;0.70;99.90;;;;;;5019668;28;20141;-78
2022/03/04 01:00:34;;;;;;;19.98;13.27;;;0.70;99.90;;;;;;5026397;28;20037;-74
2022/03/04 01:03:04;;;;;;;17.73;12.00;;;0.70;99.90;;;;;;5029221;28;20029;-77
2022/03/04 01:05:30;;;;;;;18.10;12.27;;;0.80;99.90;;;;;;5029628;28;20121;-77
2022/03/04 01:07:55;;;;;;;16.63;11.77;;;0.80;99.90;;;;;;5043023;28;20024;-77
2022/03/04 01:10:21;;;;;;;20.95;12.43;;;0.70;99.90;;;;;;5030150;28;20029;-74
2022/03/04 01:12:47;;;;;;;15.63;11.93;;;0.70;99.90;;;;;;5029671;28;20021;-74
2022/03/04 01:15:13;;;;;;;19.25;13.15;;;0.70;99.90;;;;;;5031266;28;20033;-75
2022/03/04 01:17:39;;;;;;;16.55;11.82;;;0.70;99.90;;;;;;5023896;28;20068;-75
2022/03/04 01:20:06;;;;;;;15.18;11.85;;;0.60;99.90;;;;;;5029409;28;20029;-74
2022/03/04 01:22:31;;;;;;;15.27;11.85;;;0.60;99.90;;;;;;5029873;28;20098;-75
2022/03/04 01:24:57;;;;;;;16.38;11.38;;;0.70;99.90;;;;;;5028981;28;20498;-74
2022/03/04 01:27:23;;;;;;;17.40;12.18;;;0.60;99.90;;;;;;5027322;28;20028;-75
2022/03/04 01:29:49;;;;;;;17.63;12.25;;;0.60;99.90;;;;;;5034507;28;20057;-75
2022/03/04 01:32:14;;;;;;;15.40;11.82;;;0.60;99.90;;;;;;5026524;28;20018;-74
2022/03/04 01:34:40;;;;;;;18.58;13.02;;;0.50;99.90;;;;;;5045790;28;20029;-75
2022/03/04 01:37:07;;;;;;;16.75;11.95;;;0.50;99.90;;;;;;5034096;28;20644;-74
2022/03/04 01:39:33;;;;;;;18.75;13.60;;;0.40;99.90;;;;;;5028185;28;20033;-75
2022/03/04 01:41:58;;;;;;;18.00;12.80;;;0.40;99.90;;;;;;5033123;28;20025;-74
2022/03/04 01:44:24;;;;;;;21.48;13.57;;;0.40;99.90;;;;;;5025579;28;20026;-75
2022/03/04 01:46:49;;;;;;;18.08;12.45;;;0.30;99.90;;;;;;5033634;28;20501;-75
2022/03/04 01:49:16;;;;;;;18.38;12.75;;;0.40;99.90;;;;;;5034193;28;20060;-75
2022/03/04 01:51:41;;;;;;;20.95;13.70;;;0.40;99.90;;;;;;5049266;28;20068;-74
2022/03/04 01:54:07;;;;;;;20.00;13.23;;;0.40;99.90;;;;;;5049301;28;20045;-75
2022/03/04 01:56:33;;;;;;;20.50;14.27;;;0.30;99.90;;;;;;5032039;28;20025;-75
2022/03/04 01:58:58;;;;;;;21.08;13.52;;;0.30;99.90;;;;;;5033670;28;20030;-74
2022/03/04 02:01:24;;;;;;;18.55;13.05;;;0.20;99.90;;;;;;5031439;28;20055;-74
2022/03/04 02:03:49;;;;;;;19.27;12.48;;;0.20;99.90;;;;;;5045483;28;20053;-75
2022/03/04 02:06:16;;;;;;;20.20;12.90;;;0.10;99.90;;;;;;5033635;28;20105;-73
2022/03/04 02:08:41;;;;;;;19.42;13.68;;;0.20;99.90;;;;;;5034227;28;20022;-76
2022/03/04 02:11:08;;;;;;;20.30;14.50;;;0.30;99.90;;;;;;5028747;28;20075;-75
2022/03/04 02:13:34;;;;;;;22.23;14.30;;;0.40;99.90;;;;;;5033861;28;20026;-75
2022/03/04 02:16:00;;;;;;;24.45;15.38;;;0.30;99.90;;;;;;5028036;28;20420;-75
2022/03/04 02:18:26;;;;;;;19.48;13.88;;;0.30;99.90;;;;;;5032430;28;20025;-74
2022/03/04 02:20:53;;;;;;;19.17;13.73;;;0.30;99.90;;;;;;5033073;28;20112;-74
2022/03/04 02:23:20;;;;;;;20.48;14.07;;;0.30;99.90;;;;;;5033260;28;20486;-76
2022/03/04 02:25:48;;;;;;;18.33;13.52;;;0.20;99.90;;;;;;5047445;28;20022;-74
2022/03/04 02:28:15;;;;;;;21.77;13.80;;;0.30;99.90;;;;;;5046800;28;20085;-74
2022/03/04 02:30:41;;;;;;;24.65;14.48;;;0.30;99.90;;;;;;5050150;28;20025;-74
2022/03/04 02:33:07;;;;;;;23.73;13.73;;;0.20;99.90;;;;;;5046220;28;20035;-74
2022/03/04 02:35:34;;;;;;;17.77;12.93;;;0.10;99.90;;;;;;5048547;28;20022;-74
2022/03/04 02:38:00;;;;;;;19.85;12.95;;;0.10;99.90;;;;;;5033904;28;20121;-74
2022/03/04 02:40:26;;;;;;;21.30;15.40;;;0.10;99.90;;;;;;5032972;28;20109;-74
2022/03/04 02:42:52;;;;;;;18.55;12.93;;;0.10;99.90;;;;;;5028549;28;20447;-74
2022/03/04 02:45:18;;;;;;;20.90;13.85;;;0.10;99.90;;;;;;5047891;28;20105;-74
2022/03/04 02:47:43;;;;;;;22.60;13.10;;;0.10;99.90;;;;;;5031726;28;20105;-74
2022/03/04 02:50:09;;;;;;;22.10;15.57;;;0.00;99.90;;;;;;5047747;28;20101;-74
2022/03/04 02:52:35;;;;;;;20.30;13.57;;;0.00;99.90;;;;;;5032451;28;20470;-72
2022/03/04 02:55:00;;;;;;;20.00;13.40;;;0.00;99.90;;;;;;5032911;28;20051;-75
2022/03/04 02:57:26;;;;;;;19.02;14.20;;;0.00;99.90;;;;;;5031325;28;20025;-75
2022/03/04 02:59:51;;;;;;;22.38;14.77;;;0.00;99.90;;;;;;5027596;28;20407;-74
2022/03/04 03:02:17;;;;;;;23.90;17.50;;;0.00;99.90;;;;;;5030646;28;20095;-74
2022/03/04 03:04:43;;;;;;;17.38;12.73;;;0.00;99.90;;;;;;5023139;28;20081;-74
2022/03/04 03:07:08;;;;;;;24.23;14.13;;;-0.10;99.90;;;;;;5032755;28;20041;-75
2022/03/04 03:09:34;;;;;;;22.48;13.98;;;-0.10;99.90;;;;;;5021182;28;20018;-75
2022/03/04 03:12:00;;;;;;;20.02;13.55;;;-0.10;99.90;;;;;;5032669;28;20022;-75
2022/03/04 03:14:25;;;;;;;21.23;13.55;;;-0.20;99.90;;;;;;5028988;28;20033;-74
2022/03/04 03:16:51;;;;;;;21.20;14.70;;;-0.20;99.90;;;;;;5031896;28;20032;-75
2022/03/04 03:19:16;;;;;;;22.45;14.38;;;-0.20;99.90;;;;;;5027281;28;20042;-75
2022/03/04 03:21:42;;;;;;;21.65;13.93;;;-0.30;99.90;;;;;;5032562;28;20029;-75
2022/03/04 03:24:08;;;;;;;21.98;14.13;;;-0.30;99.90;;;;;;5025867;28;20031;-74
2022/03/04 03:26:33;;;;;;;19.20;13.85;;;-0.30;99.90;;;;;;5020994;28;20425;-75
2022/03/04 03:28:59;;;;;;;23.25;14.27;;;-0.30;99.90;;;;;;5027427;28;20057;-74
2022/03/04 03:31:24;;;;;;;21.35;15.15;;;-0.30;99.90;;;;;;5032030;28;20026;-74
2022/03/04 03:33:50;;;;;;;22.92;14.23;;;-0.30;99.90;;;;;;5047842;28;20037;-75
2022/03/04 03:36:16;;;;;;;18.13;13.70;;;-0.30;99.90;;;;;;5031585;28;20056;-75
2022/03/04 03:38:41;;;;;;;18.92;13.57;;;-0.30;99.90;;;;;;5029879;28;20032;-75
2022/03/04 03:41:07;;;;;;;18.25;13.45;;;-0.40;99.90;;;;;;5031356;28;20113;-76
2022/03/04 03:43:32;;;;;;;20.45;13.65;;;-0.30;99.90;;;;;;5030834;28;20061;-76
2022/03/04 03:45:58;;;;;;;20.80;15.20;;;-0.30;99.90;;;;;;5032239;28;20021;-74
2022/03/04 03:48:23;;;;;;;19.85;14.32;;;-0.30;99.90;;;;;;5028673;28;20030;-75
2022/03/04 03:50:49;;;;;;;23.15;14.75;;;-0.40;99.90;;;;;;5031369;28;20024;-75
2022/03/04 03:53:14;;;;;;;22.63;15.68;;;-0.40;99.90;;;;;;5038105;28;20021;-74
2022/03/04 03:55:40;;;;;;;22.13;14.15;;;-0.50;99.90;;;;;;5045076;28;20033;-75
2022/03/04 03:58:06;;;;;;;20.77;13.80;;;-0.40;99.90;;;;;;5028034;28;20025;-73
2022/03/04 04:00:31;;;;;;;25.70;15.60;;;-0.40;99.90;;;;;;5030275;28;20448;-74
2022/03/04 04:02:57;;;;;;;19.85;13.55;;;-0.40;99.90;;;;;;5031990;28;20426;-75
2022/03/04 04:05:22;;;;;;;18.70;15.20;;;-0.40;99.90;;;;;;5030803;28;20083;-74
2022/03/04 04:07:48;;;;;;;18.52;13.60;;;-0.40;99.90;;;;;;5027834;28;20040;-74
2022/03/04 04:10:14;;;;;;;23.55;14.45;;;-0.40;99.90;;;;;;5030682;28;20025;-74
2022/03/04 04:12:39;;;;;;;23.80;14.50;;;-0.50;99.90;;;;;;5031179;28;20037;-75
2022/03/04 04:15:06;;;;;;;20.23;14.13;;;-0.50;99.90;;;;;;5030683;28;20028;-75
2022/03/04 04:17:31;;;;;;;24.15;15.30;;;-0.50;99.90;;;;;;5030411;28;20060;-75
2022/03/04 04:19:57;;;;;;;29.63;15.05;;;-0.50;99.90;;;;;;5030182;28;20433;-74
2022/03/04 04:22:22;;;;;;;21.50;14.40;;;-0.60;99.90;;;;;;5046317;28;20541;-75
2022/03/04 04:24:48;;;;;;;20.95;14.48;;;-0.60;99.90;;;;;;5026714;28;20083;-75
2022/03/04 04:27:14;;;;;;;23.77;14.20;;;-0.60;99.90;;;;;;5029094;28;20101;-75
2022/03/04 04:29:40;;;;;;;19.15;14.00;;;-0.70;99.90;;;;;;5030248;28;20083;-75
2022/03/04 04:32:07;;;;;;;20.15;13.77;;;-0.60;99.90;;;;;;5026806;28;20112;-75
2022/03/04 04:34:33;;;;;;;26.17;14.90;;;-0.60;99.90;;;;;;5027442;28;20116;-74
2022/03/04 04:36:58;;;;;;;22.85;15.05;;;-0.60;99.90;;;;;;5046906;28;20029;-75
2022/03/04 04:39:24;;;;;;;24.88;15.90;;;-0.60;99.90;;;;;;5030046;28;20040;-75
2022/03/04 04:41:49;;;;;;;26.05;16.45;;;-0.60;99.90;;;;;;5046077;28;20129;-75
2022/03/04 04:44:15;;;;;;;31.23;16.05;;;-0.60;99.90;;;;;;5025567;28;20030;-74
2022/03/04 04:46:40;;;;;;;27.02;15.40;;;-0.60;99.90;;;;;;5030993;28;20028;-75
2022/03/04 04:49:06;;;;;;;35.20;16.88;;;-0.60;99.90;;;;;;5031050;28;20098;-74
2022/03/04 04:51:31;;;;;;;26.98;15.88;;;-0.60;99.90;;;;;;5035305;28;20401;-75
2022/03/04 04:53:57;;;;;;;25.35;16.77;;;-0.70;99.90;;;;;;5036137;28;20106;-74
2022/03/04 04:56:23;;;;;;;28.20;17.10;;;-0.70;99.90;;;;;;5031237;28;20521;-74
2022/03/04 04:58:48;;;;;;;28.48;14.73;;;-0.80;99.90;;;;;;5031708;28;20443;-75
2022/03/04 05:01:15;;;;;;;35.05;16.27;;;-0.70;99.90;;;;;;5045292;28;20022;-74
2022/03/04 05:03:40;;;;;;;22.33;14.65;;;-0.70;99.90;;;;;;5050103;28;20107;-75
2022/03/04 05:06:06;;;;;;;31.15;17.85;;;-0.70;99.90;;;;;;5049905;28;20045;-74
2022/03/04 05:08:32;;;;;;;28.33;16.52;;;-0.60;99.90;;;;;;5034134;28;20033;-73
2022/03/04 05:10:57;;;;;;;25.25;15.23;;;-0.70;99.90;;;;;;5035313;28;20029;-75
2022/03/04 05:13:23;;;;;;;21.25;15.52;;;-0.80;99.90;;;;;;5033944;28;20061;-74
2022/03/04 05:15:49;;;;;;;22.33;14.48;;;-0.70;99.90;;;;;;5028322;28;20389;-74
2022/03/04 05:18:14;;;;;;;31.05;17.25;;;-0.80;99.90;;;;;;5033017;28;20037;-74
2022/03/04 05:20:40;;;;;;;25.75;16.15;;;-0.80;99.90;;;;;;5029127;28;20100;-73
2022/03/04 05:23:06;;;;;;;24.27;15.88;;;-0.80;99.90;;;;;;5034555;28;20393;-75
2022/03/04 05:25:32;;;;;;;22.80;13.52;;;-0.90;99.90;;;;;;5034241;28;20478;-74
2022/03/04 05:27:57;;;;;;;21.95;14.70;;;-0.90;99.90;;;;;;5049803;28;20164;-73
2022/03/04 05:30:23;;;;;;;20.90;14.80;;;-0.90;99.90;;;;;;5033584;28;20036;-74
2022/03/04 05:32:49;;;;;;;21.58;15.50;;;-0.90;99.90;;;;;;5034347;28;20057;-75
2022/03/04 05:35:15;;;;;;;26.63;16.08;;;-0.90;99.90;;;;;;5024786;28;20049;-75
2022/03/04 05:37:41;;;;;;;28.92;15.40;;;-0.90;99.90;;;;;;5046171;28;20029;-73
2022/03/04 05:40:07;;;;;;;26.45;14.93;;;-0.80;99.90;;;;;;5033237;28;20033;-75
2022/03/04 05:42:33;;;;;;;22.52;15.48;;;-0.90;99.90;;;;;;5049187;28;20022;-74
2022/03/04 05:44:58;;;;;;;24.20;14.40;;;-0.90;99.90;;;;;;5046227;28;20508;-74
2022/03/04 05:47:25;;;;;;;21.92;15.15;;;-1.00;99.90;;;;;;5022776;28;20034;-74
2022/03/04 05:49:50;;;;;;;20.45;14.82;;;-1.00;99.90;;;;;;5033752;28;20022;-74
2022/03/04 05:52:16;;;;;;;20.70;14.65;;;-1.00;99.90;;;;;;5018288;28;20045;-76
2022/03/04 05:54:41;;;;;;;25.05;16.48;;;-1.00;99.90;;;;;;5022531;28;20017;-75
2022/03/04 05:57:07;;;;;;;26.08;14.85;;;-1.00;99.90;;;;;;5034059;28;20481;-75
2022/03/04 05:59:33;;;;;;;26.45;16.35;;;-1.00;99.90;;;;;;5032851;28;20045;-74
2022/03/04 06:01:59;;;;;;;28.17;15.50;;;-1.00;99.90;;;;;;5048845;28;20386;-74
2022/03/04 06:04:24;;;;;;;25.73;16.15;;;-0.90;99.90;;;;;;5032664;28;20056;-74
2022/03/04 06:06:50;;;;;;;19.00;14.15;;;-0.80;99.90;;;;;;5026615;28;20054;-74
2022/03/04 06:09:16;;;;;;;23.23;15.55;;;-0.90;99.90;;;;;;5031510;28;20068;-74
2022/03/04 06:11:42;;;;;;;24.63;14.88;;;-0.90;99.90;;;;;;5045394;28;20025;-75
2022/03/04 06:14:07;;;;;;;23.00;15.70;;;-0.90;99.90;;;;;;5027165;28;20450;-74
2022/03/04 06:16:33;;;;;;;25.50;15.02;;;-0.90;99.90;;;;;;5033326;28;20022;-74
2022/03/04 06:18:58;;;;;;;26.95;15.57;;;-0.80;99.90;;;;;;5033342;28;20107;-74
2022/03/04 06:21:24;;;;;;;27.08;16.45;;;-0.80;99.90;;;;;;5032764;28;20057;-75
2022/03/04 06:23:50;;;;;;;33.33;20.10;;;-0.80;99.90;;;;;;5027573;28;20465;-75
2022/03/04 06:26:16;;;;;;;28.95;19.33;;;-0.70;99.90;;;;;;5029236;28;20390;-75
2022/03/04 06:28:41;;;;;;;34.97;20.25;;;-0.70;99.90;;;;;;5032383;28;20028;-74
2022/03/04 06:31:07;;;;;;;26.55;17.98;;;-0.70;99.90;;;;;;5031950;28;20021;-76
2022/03/04 06:33:33;;;;;;;32.00;20.25;;;-0.70;99.90;;;;;;5033117;28;20513;-75
2022/03/04 06:36:01;;;;;;;40.83;21.42;;;-0.60;99.90;;;;;;5032316;28;20029;-74
2022/03/04 06:38:27;;;;;;;35.50;17.55;;;-0.50;99.90;;;;;;5031422;28;20036;-75
2022/03/04 06:40:53;;;;;;;30.60;18.77;;;-0.50;99.90;;;;;;5047826;28;20120;-75
2022/03/04 06:43:19;;;;;;;23.92;17.33;;;-0.40;99.90;;;;;;5030831;28;20143;-75
2022/03/04 06:45:47;;;;;;;34.38;19.50;;;-0.30;99.90;;;;;;5031324;28;20013;-75
2022/03/04 06:48:14;;;;;;;40.28;20.30;;;-0.20;99.90;;;;;;5032501;28;20378;-75
2022/03/04 06:50:40;;;;;;;30.92;17.58;;;-0.10;99.90;;;;;;5047142;28;20017;-74
2022/03/04 06:53:06;;;;;;;29.15;16.00;;;0.00;99.90;;;;;;5048849;28;20029;-74
2022/03/04 06:55:32;;;;;;;29.23;18.48;;;0.00;99.90;;;;;;5037792;28;20021;-74
2022/03/04 06:57:58;;;;;;;33.33;18.05;;;0.20;99.90;;;;;;5031843;28;20088;-75
2022/03/04 07:00:25;;;;;;;44.80;17.25;;;0.30;99.90;;;;;;5032063;28;20033;-75
2022/03/04 07:02:51;;;;;;;33.95;16.73;;;0.50;99.90;;;;;;5033163;28;20048;-75
2022/03/04 07:05:17;;;;;;;32.10;17.70;;;0.60;99.90;;;;;;5030848;28;20073;-75
2022/03/04 07:07:43;;;;;;;37.15;17.50;;;0.60;99.90;;;;;;5027740;28;20021;-76
2022/03/04 07:10:08;;;;;;;25.45;16.25;;;0.80;99.90;;;;;;5031690;28;20061;-76
2022/03/04 07:12:35;;;;;;;23.38;14.48;;;0.90;99.90;;;;;;5046496;28;20024;-74
2022/03/04 07:15:01;;;;;;;29.88;16.15;;;0.90;99.90;;;;;;5031290;28;20060;-75
2022/03/04 07:17:26;;;;;;;26.90;16.85;;;1.00;99.90;;;;;;5047892;28;20049;-76
2022/03/04 07:19:52;;;;;;;25.42;15.15;;;1.10;99.90;;;;;;5026441;28;20426;-75
2022/03/04 07:22:17;;;;;;;22.98;14.73;;;1.10;99.90;;;;;;5032549;28;20033;-74
2022/03/04 07:24:43;;;;;;;21.83;16.45;;;1.10;99.90;;;;;;5030385;28;20021;-74
2022/03/04 07:27:09;;;;;;;26.35;15.98;;;1.10;99.90;;;;;;5029069;28;20017;-74
2022/03/04 07:29:34;;;;;;;28.58;17.02;;;1.30;99.90;;;;;;5023065;28;20022;-75
2022/03/04 07:32:00;;;;;;;23.38;16.13;;;1.50;99.90;;;;;;5020573;28;20029;-75
2022/03/04 07:34:25;;;;;;;25.35;16.08;;;1.60;99.90;;;;;;5039070;28;20474;-76
2022/03/04 07:36:54;;;;;;;25.95;16.38;;;1.70;99.90;;;;;;5031862;28;20562;-74
2022/03/04 07:39:20;;;;;;;23.80;16.30;;;1.70;99.90;;;;;;5032413;28;20152;-74
2022/03/04 07:41:50;;;;;;;24.67;15.75;;;1.60;99.90;;;;;;5026043;28;20537;-75
2022/03/04 07:44:16;;;;;;;23.15;16.17;;;1.70;99.90;;;;;;5026007;28;20103;-74
2022/03/04 07:46:41;;;;;;;27.40;17.85;;;1.70;99.90;;;;;;5030835;28;20517;-76
2022/03/04 07:49:07;;;;;;;24.25;15.95;;;1.90;99.90;;;;;;5027298;28;20041;-75
2022/03/04 07:51:33;;;;;;;32.35;20.90;;;1.90;99.90;;;;;;5031104;28;20053;-76
2022/03/04 07:53:59;;;;;;;25.15;15.68;;;1.90;99.90;;;;;;5026855;28;20030;-76
2022/03/04 07:56:25;;;;;;;24.38;15.82;;;1.70;99.90;;;;;;5026875;28;20032;-77
2022/03/04 07:58:50;;;;;;;26.58;15.70;;;1.70;99.90;;;;;;5035240;28;20028;-74
2022/03/04 08:01:16;;;;;;;24.00;16.73;;;1.90;99.90;;;;;;5031611;28;20029;-74
2022/03/04 08:03:45;;;;;;;24.25;15.32;;;2.00;99.90;;;;;;5029437;28;20048;-74
2022/03/04 08:06:10;;;;;;;26.85;16.15;;;2.10;99.90;;;;;;5045580;28;20037;-75
2022/03/04 08:08:36;;;;;;;25.88;16.00;;;2.20;99.90;;;;;;5023463;28;20029;-74
2022/03/04 08:11:02;;;;;;;27.05;17.48;;;2.40;99.90;;;;;;5025794;28;20025;-72
2022/03/04 08:13:28;;;;;;;24.38;17.00;;;2.70;99.90;;;;;;5030256;28;20117;-74
2022/03/04 08:15:53;;;;;;;26.65;17.42;;;2.80;99.90;;;;;;5033193;28;20040;-73
2022/03/04 08:18:19;;;;;;;24.13;18.10;;;2.90;99.90;;;;;;5033480;28;20041;-74
2022/03/04 08:20:44;;;;;;;23.30;16.95;;;2.90;99.90;;;;;;5026463;28;20412;-74
2022/03/04 08:23:11;;;;;;;26.30;18.33;;;3.10;99.90;;;;;;5033302;28;20124;-74
2022/03/04 08:25:37;;;;;;;26.95;18.83;;;3.20;99.90;;;;;;5039938;28;20025;-73
2022/03/04 08:28:03;;;;;;;26.67;18.58;;;3.30;99.90;;;;;;5027373;28;20022;-74
2022/03/04 08:30:29;;;;;;;28.85;17.92;;;3.30;99.90;;;;;;5025004;28;20099;-73
2022/03/04 08:32:55;;;;;;;26.08;17.83;;;3.40;99.90;;;;;;5031504;28;20022;-74
2022/03/04 08:35:20;;;;;;;25.70;16.85;;;3.50;99.90;;;;;;5025789;28;20544;-74
2022/03/04 08:37:46;;;;;;;28.75;17.30;;;3.70;99.90;;;;;;5023154;28;20018;-73
2022/03/04 08:40:11;;;;;;;29.20;19.23;;;3.80;99.60;;;;;;5043037;28;20028;-74
2022/03/04 08:42:39;;;;;;;26.38;17.35;;;3.80;99.20;;;;;;5031300;28;20436;-73
2022/03/04 08:45:05;;;;;;;25.55;18.23;;;3.80;99.30;;;;;;5045921;28;20025;-74
2022/03/04 08:47:30;;;;;;;27.08;17.58;;;3.90;99.30;;;;;;5026080;28;20018;-73
2022/03/04 08:49:56;;;;;;;26.73;17.92;;;3.90;99.10;;;;;;5022864;28;20482;-74
2022/03/04 08:52:22;;;;;;;25.73;17.67;;;4.00;98.70;;;;;;5031203;28;20040;-74
2022/03/04 08:54:47;;;;;;;28.15;18.65;;;4.10;98.40;;;;;;5022396;28;20112;-74
2022/03/04 08:57:13;;;;;;;28.98;18.40;;;4.10;98.30;;;;;;5031110;28;20099;-74
2022/03/04 08:59:39;;;;;;;26.15;18.42;;;4.20;98.00;;;;;;5022284;28;20096;-74
2022/03/04 09:02:05;;;;;;;24.08;18.23;;;4.30;97.60;;;;;;5030911;28;20033;-74
2022/03/04 09:04:31;;;;;;;26.70;18.73;;;4.30;97.50;;;;;;5022534;28;20034;-73
2022/03/04 09:06:56;;;;;;;27.67;18.60;;;4.50;97.20;;;;;;5030989;28;20029;-74
2022/03/04 09:09:22;;;;;;;26.00;17.58;;;4.70;96.40;;;;;;5029953;28;20025;-74
2022/03/04 09:11:47;;;;;;;26.70;17.75;;;4.70;96.40;;;;;;5031219;28;20101;-75
2022/03/04 09:14:15;;;;;;;25.63;17.40;;;4.80;95.80;;;;;;5046254;28;20029;-73
2022/03/04 09:16:41;;;;;;;25.23;18.65;;;4.90;96.10;;;;;;5027873;28;20390;-74
2022/03/04 09:19:07;;;;;;;27.00;17.65;;;5.10;95.30;;;;;;5031788;28;20029;-74
2022/03/04 09:21:33;;;;;;;26.63;18.17;;;5.10;94.80;;;;;;5044280;28;20021;-75
2022/03/04 09:23:59;;;;;;;28.13;18.55;;;5.20;94.60;;;;;;5026492;28;20548;-73
2022/03/04 09:26:26;;;;;;;27.35;17.10;;;5.20;94.40;;;;;;5027869;28;20412;-75
2022/03/04 09:28:52;;;;;;;24.63;18.75;;;5.30;94.10;;;;;;5045859;28;20032;-74
2022/03/04 09:31:18;;;;;;;29.30;18.35;;;5.40;93.60;;;;;;5039612;28;20026;-74
2022/03/04 09:33:43;;;;;;;28.08;17.67;;;5.50;93.20;;;;;;5038720;28;20049;-74
2022/03/04 09:36:11;;;;;;;28.50;18.77;;;5.40;92.80;;;;;;5024050;28;20030;-74
2022/03/04 09:38:38;;;;;;;23.52;17.48;;;5.60;93.00;;;;;;5034319;28;20014;-74
2022/03/04 09:41:05;;;;;;;24.95;18.23;;;5.60;92.80;;;;;;5033508;28;20048;-74
2022/03/04 09:43:31;;;;;;;31.25;19.42;;;5.70;92.80;;;;;;5034008;28;20053;-73
2022/03/04 09:45:56;;;;;;;28.35;18.80;;;5.80;92.40;;;;;;5032513;28;20053;-74
2022/03/04 09:48:23;;;;;;;26.42;19.50;;;5.80;92.30;;;;;;5035898;28;20048;-73
2022/03/04 09:50:49;;;;;;;24.52;18.13;;;5.80;92.20;;;;;;5034078;28;20025;-74
2022/03/04 09:53:16;;;;;;;27.38;18.05;;;6.00;91.80;;;;;;5031888;28;20022;-74
2022/03/04 09:55:43;;;;;;;29.35;18.48;;;6.00;91.60;;;;;;5031373;28;20040;-74
2022/03/04 09:58:14;;;;;;;27.50;17.65;;;6.10;91.10;;;;;;5032020;28;20029;-74
2022/03/04 10:00:42;;;;;;;24.85;18.45;;;6.10;90.80;;;;;;5031546;28;20060;-73
2022/03/04 10:03:41;;;;;;;28.50;19.33;;;6.10;90.90;;;;;;5033246;28;20026;-74
2022/03/04 10:06:06;;;;;;;28.98;17.80;;;6.20;90.30;;;;;;5033576;28;20066;-74
2022/03/04 10:08:44;;;;;;;26.95;19.02;;;6.40;89.60;;;;;;5048699;28;20112;-75
2022/03/04 10:11:11;;;;;;;27.10;18.27;;;6.30;90.10;;;;;;5031739;28;20030;-73
2022/03/04 10:13:52;;;;;;;29.67;19.08;;;6.50;88.20;;;;;;5034285;28;20119;-73
2022/03/04 10:16:32;;;;;;;;;;;6.50;87.60;;;;;;5031305;28;20029;-73
2022/03/04 10:19:11;;;;;;;25.98;18.50;;;6.60;86.90;;;;;;5043149;28;19966;-74
2022/03/04 10:21:51;;;;;;;27.55;19.17;;;6.70;87.30;;;;;;5032803;28;20025;-73
2022/03/04 10:24:26;;;;;;;27.40;18.10;;;6.90;86.30;;;;;;5032376;28;20113;-74
2022/03/04 10:27:00;;;;;;;29.20;19.58;;;6.80;85.50;;;;;;5024953;28;20045;-74
2022/03/04 10:29:26;;;;;;;28.75;18.95;;;6.80;86.10;;;;;;5029275;28;20080;-73
2022/03/04 10:32:09;;;;;;;28.20;18.88;;;6.60;85.80;;;;;;5045112;28;20133;-74
2022/03/04 10:34:58;;;;;;;30.05;18.58;;;6.50;86.50;;;;;;5032313;28;20093;-76
2022/03/04 10:37:55;;;;;;;25.10;18.38;;;6.60;85.50;;;;;;5026839;28;20027;-74
2022/03/04 10:40:23;;;;;;;24.13;18.15;;;6.60;85.00;;;;;;5031684;28;20378;-73
2022/03/04 10:42:50;;;;;;;31.25;19.70;;;6.70;85.60;;;;;;5031660;28;20449;-73
2022/03/04 10:45:21;;;;;;;28.35;19.25;;;6.70;84.60;;;;;;5032045;28;20041;-73
2022/03/04 10:47:51;;;;;;;24.95;18.10;;;6.80;84.70;;;;;;5031803;28;20056;-73
2022/03/04 10:50:24;;;;;;;28.48;19.00;;;6.90;83.60;;;;;;5026362;28;20022;-73
2022/03/04 10:52:51;;;;;;;24.77;18.30;;;6.80;83.00;;;;;;5023050;28;20490;-73
2022/03/04 10:55:29;;;;;;;26.88;18.10;;;7.40;82.80;;;;;;5028154;28;20018;-74
2022/03/04 10:57:55;;;;;;;26.02;18.40;;;7.40;81.30;;;;;;5037736;28;20026;-74
2022/03/04 11:00:33;;;;;;;24.17;17.15;;;7.40;80.70;;;;;;5022801;28;20105;-74
2022/03/04 11:02:59;;;;;;;32.00;20.20;;;7.80;79.40;;;;;;5038693;28;20017;-73
2022/03/04 11:05:25;;;;;;;24.70;18.10;;;7.70;78.90;;;;;;5032454;28;20436;-74
2022/03/04 11:07:51;;;;;;;30.08;18.95;;;7.80;77.50;;;;;;5035065;28;20021;-74
2022/03/04 11:10:19;;;;;;;24.75;17.42;;;7.60;77.10;;;;;;5037633;28;20096;-73
2022/03/04 11:12:46;;;;;;;24.45;18.05;;;7.40;77.70;;;;;;5027672;28;20024;-72
2022/03/04 11:15:12;;;;;;;25.67;18.83;;;7.60;77.30;;;;;;5026905;28;20520;-74
2022/03/04 11:17:39;;;;;;;23.73;19.27;;;7.30;77.40;;;;;;5030227;28;20041;-74
2022/03/04 11:20:09;;;;;;;27.58;18.13;;;7.60;78.20;;;;;;5030381;28;20029;-74
2022/03/04 11:22:38;;;;;;;25.40;17.17;;;7.70;76.10;;;;;;5039505;28;20025;-74
2022/03/04 11:25:06;;;;;;;24.23;17.17;;;7.60;74.90;;;;;;5040393;28;20025;-73
2022/03/04 11:27:45;;;;;;;27.60;17.65;;;7.40;75.30;;;;;;5034336;28;20026;-73
2022/03/04 11:30:39;;;;;;;26.10;17.40;;;7.50;74.70;;;;;;5033750;28;20034;-75
2022/03/04 11:33:18;;;;;;;24.48;17.77;;;7.80;73.90;;;;;;5046847;28;20032;-73
2022/03/04 11:35:55;;;;;;;24.95;17.42;;;8.00;73.30;;;;;;5024244;28;20025;-75
2022/03/04 11:38:45;;;;;;;21.25;16.38;;;7.90;73.00;;;;;;5032689;28;20022;-73
2022/03/04 11:41:19;;;;;;;22.75;16.45;;;8.10;72.20;;;;;;5037493;28;20025;-73
2022/03/04 11:43:55;;;;;;;21.35;16.27;;;8.00;71.40;;;;;;5029568;28;20025;-73
2022/03/04 11:46:26;;;;;;;19.92;15.48;;;8.30;71.60;;;;;;5027196;28;20029;-74
2022/03/04 11:49:22;;;;;;;20.45;15.60;;;8.50;70.30;;;;;;5030945;28;20021;-73
2022/03/04 11:52:10;;;;;;;24.15;14.45;;;8.50;66.10;;;;;;5033920;28;20040;-74
2022/03/04 11:54:41;;;;;;;19.80;12.70;;;8.60;64.30;;;;;;5031011;28;20105;-73
2022/03/04 11:57:19;;;;;;;17.92;13.40;;;8.80;64.80;;;;;;5032140;28;20147;-73
2022/03/04 11:59:58;;;;;;;16.35;12.38;;;9.10;63.30;;;;;;5030871;28;20090;-74
2022/03/04 12:02:29;;;;;;;17.02;12.35;;;9.30;61.90;;;;;;5031242;28;20486;-74
2022/03/04 12:05:22;;;;;;;;;;;9.30;60.80;;;;;;5046318;28;20034;-73
2022/03/04 12:07:50;;;;;;;17.30;11.85;;;9.40;59.00;;;;;;5024414;28;19905;-74
2022/03/04 12:10:38;;;;;;;21.83;12.18;;;9.20;59.40;;;;;;5031343;28;20053;-74
2022/03/04 12:13:19;;;;;;;15.07;10.93;;;9.00;59.00;;;;;;5018501;28;20021;-73
2022/03/04 12:15:50;;;;;;;15.55;11.73;;;9.10;59.00;;;;;;5031683;28;20048;-74
2022/03/04 12:18:34;;;;;;;14.30;11.40;;;9.10;58.00;;;;;;5020761;28;20091;-74
2022/03/04 12:21:06;;;;;;;14.85;11.43;;;9.10;57.60;;;;;;5027795;28;20090;-76
2022/03/04 12:23:47;;;;;;;17.25;11.95;;;9.10;57.80;;;;;;5017635;28;20083;-74
2022/03/04 12:26:31;;;;;;;17.02;13.07;;;9.20;58.50;;;;;;5046526;28;20025;-74
2022/03/04 12:29:02;;;;;;;20.65;14.88;;;9.30;59.30;;;;;;5026095;28;20022;-74
2022/03/04 12:31:33;;;;;;;20.50;14.77;;;9.20;60.00;;;;;;5031021;28;20025;-73
2022/03/04 12:33:59;;;;;;;19.83;14.52;;;9.10;60.30;;;;;;5023847;28;20040;-74
2022/03/04 12:36:27;;;;;;;19.10;14.80;;;9.10;61.00;;;;;;5027087;28;20116;-74
2022/03/04 12:38:58;;;;;;;20.50;15.45;;;9.30;60.70;;;;;;5024255;28;20026;-73